Freedom, California
Current Conditions -  °F | °C
As of 4:53 AM on Wednesday 22 Oct 2014 (Local Time) from KWVI Reporting Station
Clear Clear  
Wind Chill: 51°   Ceiling: Unl
Heat Index: 51°   Visibility: 10mi
Dew Point: 46°   Wind: 3mph
Humidity: 83%   Direction: 310°NW
Pressure: 30.04"   Gusts: NA
Location:  36.94°N, 121.77°W
Report Text: KWVI 221153Z AUTO 31003KT 10SM CLR 11/08 A3004 RMK AO2 SLP170 T01060078 10133 20106 56004
Loading
Personal Weather Stations






























Interactive Weather Map
Tropical Storm Tracking
New forecast layout! Learn more

10-Day Weather Forecast

Advertisements
Track Severe Weather on mobile